createdAt,value
2023-05-01T00:01:34.479Z,8.29
2023-05-01T00:03:56.236Z,8.26
2023-05-01T00:06:17.956Z,8.41
2023-05-01T00:08:39.461Z,8.15
2023-05-01T00:11:04.814Z,8.29
2023-05-01T00:13:26.555Z,8.39
2023-05-01T00:15:49.383Z,8.34
2023-05-01T00:18:11.108Z,8.32
2023-05-01T00:20:32.606Z,8.35
2023-05-01T00:22:54.326Z,8.35
2023-05-01T00:25:15.843Z,8.31
2023-05-01T00:27:37.365Z,8.21
2023-05-01T00:29:59.036Z,8.10
2023-05-01T00:32:20.795Z,8.13
2023-05-01T00:34:42.463Z,8.00
2023-05-01T00:37:03.939Z,7.81
2023-05-01T00:39:25.516Z,7.94
2023-05-01T00:41:47.027Z,8.00
2023-05-01T00:44:08.481Z,8.04
2023-05-01T00:46:31.716Z,8.06
2023-05-01T00:48:53.702Z,8.18
2023-05-01T00:51:15.723Z,8.20
2023-05-01T00:53:37.220Z,7.86
2023-05-01T00:55:59.494Z,7.78
2023-05-01T00:58:21.079Z,7.84
2023-05-01T01:00:42.815Z,7.93
2023-05-01T01:03:04.918Z,7.95
2023-05-01T01:05:30.363Z,7.90
2023-05-01T01:07:58.188Z,7.86
2023-05-01T01:10:30.961Z,7.70
2023-05-01T01:13:25.040Z,7.66
2023-05-01T01:16:04.241Z,7.64
2023-05-01T01:18:40.836Z,7.70
2023-05-01T01:21:14.102Z,7.58
2023-05-01T01:23:42.059Z,7.61
2023-05-01T01:26:34.581Z,7.66
2023-05-01T01:29:36.543Z,7.70
2023-05-01T01:32:35.981Z,7.42
2023-05-01T01:35:04.860Z,7.31
2023-05-01T01:37:33.418Z,7.39
2023-05-01T01:39:58.915Z,7.45
2023-05-01T01:42:26.903Z,7.41
2023-05-01T01:44:52.894Z,7.38
2023-05-01T01:47:16.226Z,7.39
2023-05-01T01:49:42.319Z,7.39
2023-05-01T01:52:07.966Z,7.39
2023-05-01T01:54:35.625Z,7.39
2023-05-01T01:56:59.719Z,7.54
2023-05-01T01:59:23.099Z,7.40
2023-05-01T02:01:46.428Z,7.39
2023-05-01T02:04:09.933Z,7.44
2023-05-01T02:06:34.029Z,7.34
2023-05-01T02:08:57.096Z,7.37
2023-05-01T02:11:21.125Z,7.23
2023-05-01T02:13:44.774Z,7.35
2023-05-01T02:16:07.451Z,7.33
2023-05-01T02:18:29.359Z,7.30
2023-05-01T02:20:52.137Z,7.21
2023-05-01T02:23:13.907Z,7.14
2023-05-01T02:25:38.093Z,7.10
2023-05-01T02:28:03.618Z,7.20
2023-05-01T02:30:25.117Z,7.23
2023-05-01T02:32:46.728Z,7.20
2023-05-01T02:35:08.274Z,7.25
2023-05-01T02:37:31.048Z,7.17
2023-05-01T02:39:52.536Z,6.94
2023-05-01T02:42:17.111Z,6.91
2023-05-01T02:44:57.047Z,7.00
2023-05-01T02:47:22.852Z,7.03
2023-05-01T02:49:47.940Z,7.03
2023-05-01T02:52:11.622Z,7.01
2023-05-01T02:54:34.085Z,7.00
2023-05-01T02:56:55.813Z,6.89
2023-05-01T02:59:17.300Z,6.80
2023-05-01T03:01:39.857Z,6.70
2023-05-01T03:04:01.419Z,6.77
2023-05-01T03:06:22.945Z,6.79
2023-05-01T03:08:44.524Z,6.85
2023-05-01T03:11:07.524Z,6.81
2023-05-01T03:13:28.958Z,6.83
2023-05-01T03:15:50.355Z,6.87
2023-05-01T03:18:11.830Z,6.83
2023-05-01T03:20:34.112Z,6.96
2023-05-01T03:22:56.671Z,6.90
2023-05-01T03:25:18.141Z,6.69
2023-05-01T03:27:39.569Z,6.44
2023-05-01T03:30:01.047Z,6.49
2023-05-01T03:32:22.915Z,6.44
2023-05-01T03:34:45.861Z,6.57
2023-05-01T03:37:07.360Z,6.61
2023-05-01T03:39:28.898Z,6.65
2023-05-01T03:41:50.346Z,6.60
2023-05-01T03:44:11.786Z,6.53
2023-05-01T03:46:33.285Z,6.38
2023-05-01T03:48:54.773Z,6.45
2023-05-01T03:51:17.337Z,6.49
2023-05-01T03:53:39.280Z,6.47
2023-05-01T03:56:00.725Z,6.47
2023-05-01T03:58:23.126Z,6.37
2023-05-01T04:00:44.582Z,6.45
2023-05-01T04:03:06.288Z,6.50
2023-05-01T04:05:27.855Z,6.63
2023-05-01T04:07:49.398Z,6.48
2023-05-01T04:10:10.998Z,6.32
2023-05-01T04:12:32.425Z,6.43
2023-05-01T04:14:53.920Z,6.27
2023-05-01T04:17:15.433Z,6.45
2023-05-01T04:19:37.936Z,6.52
2023-05-01T04:21:59.361Z,6.34
2023-05-01T04:24:20.821Z,6.45
2023-05-01T04:26:43.109Z,6.50
2023-05-01T04:29:04.884Z,6.41
2023-05-01T04:31:26.445Z,6.45
2023-05-01T04:33:48.116Z,6.54
2023-05-01T04:36:09.617Z,6.74
2023-05-01T04:38:31.136Z,6.73
2023-05-01T04:40:52.684Z,6.80
2023-05-01T04:43:14.189Z,6.96
2023-05-01T04:45:35.698Z,6.86
2023-05-01T04:47:57.166Z,6.95
2023-05-01T04:50:18.664Z,6.98
2023-05-01T04:52:40.170Z,7.11
2023-05-01T04:55:01.786Z,7.13
2023-05-01T04:57:23.313Z,7.22
2023-05-01T04:59:44.794Z,7.34
2023-05-01T05:02:06.296Z,7.49
2023-05-01T05:04:28.147Z,7.58
2023-05-01T05:06:49.765Z,7.73
2023-05-01T05:09:11.274Z,7.86
2023-05-01T05:11:32.751Z,7.79
2023-05-01T05:13:54.212Z,7.91
2023-05-01T05:16:15.795Z,7.83
2023-05-01T05:18:37.357Z,8.05
2023-05-01T05:20:59.705Z,8.14
2023-05-01T05:23:21.716Z,8.30
2023-05-01T05:25:43.261Z,8.48
2023-05-01T05:28:04.912Z,8.49
2023-05-01T05:30:27.187Z,8.66
2023-05-01T05:32:48.708Z,8.82
2023-05-01T05:35:10.175Z,9.03
2023-05-01T05:37:31.751Z,9.24
2023-05-01T05:39:53.548Z,9.34
2023-05-01T05:42:15.135Z,9.41
2023-05-01T05:44:36.743Z,9.62
2023-05-01T05:46:58.179Z,9.57
2023-05-01T05:49:19.622Z,9.74
2023-05-01T05:51:41.104Z,10.00
2023-05-01T05:54:02.561Z,10.20
2023-05-01T05:56:24.452Z,10.30
2023-05-01T05:58:46.091Z,10.35
2023-05-01T06:01:09.080Z,10.50
2023-05-01T06:03:30.894Z,10.74
2023-05-01T06:05:52.495Z,10.90
2023-05-01T06:08:14.633Z,10.99
2023-05-01T06:10:37.265Z,11.19
2023-05-01T06:13:09.951Z,11.44
2023-05-01T06:15:37.411Z,11.67
2023-05-01T06:17:59.001Z,11.80
2023-05-01T06:20:20.575Z,11.85
2023-05-01T06:22:42.088Z,11.89
2023-05-01T06:25:04.272Z,11.93
2023-05-01T06:27:25.697Z,12.21
2023-05-01T06:29:47.131Z,12.38
2023-05-01T06:32:08.573Z,12.63
2023-05-01T06:34:30.491Z,12.78
2023-05-01T06:36:51.943Z,13.03
2023-05-01T06:39:13.399Z,13.36
2023-05-01T06:41:36.030Z,13.48
2023-05-01T06:43:58.573Z,13.65
2023-05-01T06:46:20.191Z,13.75
2023-05-01T06:48:41.680Z,13.96
2023-05-01T06:51:03.184Z,14.03
2023-05-01T06:53:24.645Z,14.17
2023-05-01T06:55:46.102Z,14.63
2023-05-01T06:58:22.845Z,14.77
2023-05-01T07:00:45.607Z,14.99
2023-05-01T07:03:07.173Z,15.23
2023-05-01T07:05:28.644Z,15.45
2023-05-01T07:07:57.919Z,15.69
2023-05-01T07:10:22.174Z,15.84
2023-05-01T07:12:43.731Z,16.10
2023-05-01T07:15:05.934Z,16.10
2023-05-01T07:17:27.716Z,16.44
2023-05-01T07:19:50.189Z,16.77
2023-05-01T07:22:12.340Z,16.85
2023-05-01T07:24:33.800Z,17.12
2023-05-01T07:26:56.583Z,16.69
2023-05-01T07:29:18.270Z,16.73
2023-05-01T07:31:41.864Z,16.69
2023-05-01T07:34:04.133Z,17.00
2023-05-01T07:36:25.634Z,17.18
2023-05-01T07:38:47.340Z,17.41
2023-05-01T07:41:08.801Z,17.67
2023-05-01T07:43:30.501Z,17.93
2023-05-01T07:46:00.503Z,18.00
2023-05-01T07:48:22.130Z,18.08
2023-05-01T07:50:43.637Z,17.87
2023-05-01T07:53:05.515Z,18.13
2023-05-01T07:55:27.036Z,18.29
2023-05-01T07:57:48.546Z,18.61
2023-05-01T08:00:10.675Z,18.69
2023-05-01T08:02:32.227Z,19.07
2023-05-01T08:04:53.968Z,19.06
2023-05-01T08:07:15.552Z,18.97
2023-05-01T08:09:37.063Z,19.27
2023-05-01T08:11:58.478Z,19.25
2023-05-01T08:14:20.011Z,19.28
2023-05-01T08:16:41.477Z,19.38
2023-05-01T08:19:02.996Z,19.51
2023-05-01T08:21:24.460Z,19.56
2023-05-01T08:23:45.906Z,19.63
2023-05-01T08:26:07.351Z,19.83
2023-05-01T08:28:28.866Z,20.05
2023-05-01T08:30:50.404Z,20.32
2023-05-01T08:33:12.086Z,20.65
2023-05-01T08:35:33.609Z,20.48
2023-05-01T08:37:56.014Z,21.05
2023-05-01T08:40:17.688Z,20.95
2023-05-01T08:42:39.380Z,21.30
2023-05-01T08:45:01.513Z,21.27
2023-05-01T08:47:23.074Z,21.34
2023-05-01T08:49:45.998Z,21.27
2023-05-01T08:52:08.761Z,21.48
2023-05-01T08:54:32.221Z,21.58
2023-05-01T08:56:55.159Z,21.61
2023-05-01T08:59:18.195Z,22.09
2023-05-01T09:01:41.215Z,22.47
2023-05-01T09:04:04.203Z,22.15
2023-05-01T09:06:28.575Z,22.08
2023-05-01T09:08:50.150Z,22.07
2023-05-01T09:11:12.177Z,22.45
2023-05-01T09:13:33.731Z,22.70
2023-05-01T09:15:55.248Z,22.52
2023-05-01T09:18:16.783Z,22.91
2023-05-01T09:20:38.770Z,22.99
2023-05-01T09:23:00.585Z,22.79
2023-05-01T09:25:22.048Z,23.30
2023-05-01T09:27:44.179Z,23.47
2023-05-01T09:30:07.448Z,23.54
2023-05-01T09:32:29.198Z,23.25
2023-05-01T09:34:52.178Z,23.22
2023-05-01T09:37:31.532Z,23.35
2023-05-01T09:40:10.208Z,23.94
2023-05-01T09:42:32.934Z,24.14
2023-05-01T09:44:54.737Z,24.43
2023-05-01T09:47:25.158Z,24.27
2023-05-01T09:49:50.382Z,24.76
2023-05-01T09:52:12.031Z,24.79
2023-05-01T09:54:33.484Z,25.03
2023-05-01T09:56:54.908Z,25.12
2023-05-01T09:59:21.108Z,25.39
2023-05-01T10:01:48.081Z,25.52
2023-05-01T10:04:10.082Z,25.78
2023-05-01T10:06:31.934Z,26.12
2023-05-01T10:08:54.363Z,26.44
2023-05-01T10:11:16.450Z,26.77
2023-05-01T10:13:37.918Z,26.64
2023-05-01T10:16:01.446Z,26.25
2023-05-01T10:18:24.104Z,25.66
2023-05-01T10:20:45.546Z,25.87
2023-05-01T10:23:07.389Z,26.14
2023-05-01T10:25:29.308Z,26.50
2023-05-01T10:27:52.242Z,26.70
2023-05-01T10:30:14.751Z,27.08
2023-05-01T10:32:41.074Z,27.35
2023-05-01T10:35:11.490Z,27.06
2023-05-01T10:37:44.241Z,27.76
2023-05-01T10:40:39.863Z,27.82
2023-05-01T10:43:20.921Z,28.46
2023-05-01T10:45:46.871Z,28.73
2023-05-01T10:48:08.425Z,28.82
2023-05-01T10:50:29.985Z,28.61
2023-05-01T10:53:10.904Z,28.70
2023-05-01T10:55:39.541Z,28.32
2023-05-01T10:58:01.098Z,28.34
2023-05-01T11:00:22.722Z,28.36
2023-05-01T11:02:44.197Z,27.99
2023-05-01T11:05:05.909Z,27.85
2023-05-01T11:07:28.294Z,27.72
2023-05-01T11:09:55.473Z,26.87
2023-05-01T11:12:55.243Z,27.41
2023-05-01T11:15:27.774Z,26.87
2023-05-01T11:17:49.837Z,26.48
2023-05-01T11:20:12.104Z,26.71
2023-05-01T11:22:35.029Z,26.46
2023-05-01T11:24:56.825Z,26.05
2023-05-01T11:27:18.704Z,25.68
2023-05-01T11:29:41.735Z,25.76
2023-05-01T11:32:03.244Z,25.62
2023-05-01T11:34:25.626Z,25.43
2023-05-01T11:36:49.352Z,25.15
2023-05-01T11:39:15.346Z,25.25
2023-05-01T11:41:37.201Z,25.56
2023-05-01T11:43:59.126Z,25.78
2023-05-01T11:46:30.856Z,25.95
2023-05-01T11:48:52.499Z,25.67
2023-05-01T11:51:14.045Z,25.68
2023-05-01T11:53:35.577Z,25.27
2023-05-01T11:55:57.073Z,24.98
2023-05-01T11:58:29.974Z,24.70
2023-05-01T12:00:51.485Z,24.46
2023-05-01T12:03:14.878Z,24.30
2023-05-01T12:05:38.809Z,24.35
2023-05-01T12:08:20.531Z,24.30
2023-05-01T12:10:43.665Z,24.59
2023-05-01T12:13:07.690Z,24.62
2023-05-01T12:15:29.490Z,24.97
2023-05-01T12:17:52.289Z,25.00
2023-05-01T12:20:13.876Z,24.75
2023-05-01T12:22:35.386Z,25.21
2023-05-01T12:24:57.304Z,25.70
2023-05-01T12:27:19.973Z,26.24
2023-05-01T12:29:42.190Z,26.38
2023-05-01T12:32:03.813Z,26.09
2023-05-01T12:34:32.224Z,26.55
2023-05-01T12:36:55.058Z,26.44
2023-05-01T12:39:16.592Z,26.04
2023-05-01T12:41:47.537Z,25.41
2023-05-01T12:44:19.241Z,24.54
2023-05-01T12:46:41.282Z,24.46
2023-05-01T12:49:02.885Z,24.23
2023-05-01T12:51:24.505Z,24.18
2023-05-01T12:53:46.319Z,23.82
2023-05-01T12:56:07.776Z,23.73
2023-05-01T12:58:36.988Z,23.42
2023-05-01T13:00:58.478Z,23.88
2023-05-01T13:03:26.980Z,23.69
2023-05-01T13:05:53.272Z,23.45
2023-05-01T13:08:14.729Z,23.25
2023-05-01T13:10:36.200Z,23.20
2023-05-01T13:12:58.110Z,23.36
2023-05-01T13:15:21.188Z,23.15
2023-05-01T13:17:43.880Z,23.37
2023-05-01T13:20:05.897Z,23.25
2023-05-01T13:22:34.869Z,22.81
2023-05-01T13:24:57.044Z,22.82
2023-05-01T13:27:21.483Z,22.73
2023-05-01T13:29:43.065Z,22.52
2023-05-01T13:32:08.605Z,22.08
2023-05-01T13:34:31.890Z,21.93
2023-05-01T13:36:55.630Z,21.57
2023-05-01T13:39:22.959Z,21.48
2023-05-01T13:41:44.414Z,21.28
2023-05-01T13:44:06.892Z,21.20
2023-05-01T13:46:28.740Z,20.83
2023-05-01T13:48:50.383Z,20.78
2023-05-01T13:51:13.299Z,20.58
2023-05-01T13:53:35.265Z,20.53
2023-05-01T13:55:56.800Z,20.43
2023-05-01T13:58:18.302Z,20.27
2023-05-01T14:00:39.889Z,20.37
2023-05-01T14:03:01.747Z,20.40
2023-05-01T14:05:30.494Z,20.45
2023-05-01T14:07:56.985Z,20.55
2023-05-01T14:10:19.041Z,20.76
2023-05-01T14:12:40.826Z,20.64
2023-05-01T14:15:03.460Z,20.67
2023-05-01T14:17:34.867Z,20.76
2023-05-01T14:19:56.380Z,20.72
2023-05-01T14:22:17.860Z,20.57
2023-05-01T14:24:41.108Z,20.63
2023-05-01T14:27:02.774Z,20.47
2023-05-01T14:29:27.995Z,20.13
2023-05-01T14:31:49.569Z,20.11
2023-05-01T14:34:15.524Z,20.32
2023-05-01T14:36:37.246Z,20.58
2023-05-01T14:39:00.091Z,20.63
2023-05-01T14:41:21.653Z,20.61
2023-05-01T14:43:44.404Z,20.75
2023-05-01T14:46:06.134Z,21.05
2023-05-01T14:48:35.920Z,21.24
2023-05-01T14:50:59.377Z,21.34
2023-05-01T14:53:21.225Z,21.18
2023-05-01T14:55:42.650Z,20.95
2023-05-01T14:58:04.168Z,20.73
2023-05-01T15:00:26.749Z,20.69
2023-05-01T15:02:48.900Z,20.92
2023-05-01T15:05:10.684Z,21.19
2023-05-01T15:07:32.291Z,21.36
2023-05-01T15:09:53.748Z,21.42
2023-05-01T15:12:15.276Z,21.40
2023-05-01T15:14:36.782Z,21.49
2023-05-01T15:16:58.265Z,21.50
2023-05-01T15:19:19.710Z,21.60
2023-05-01T15:21:41.196Z,21.64
2023-05-01T15:24:02.701Z,21.71
2023-05-01T15:26:24.176Z,21.58
2023-05-01T15:28:45.666Z,21.42
2023-05-01T15:31:07.140Z,21.35
2023-05-01T15:33:28.688Z,21.31
2023-05-01T15:35:51.744Z,21.28
2023-05-01T15:38:13.382Z,21.22
2023-05-01T15:40:35.248Z,21.28
2023-05-01T15:42:57.202Z,21.26
2023-05-01T15:45:18.697Z,21.30
2023-05-01T15:47:40.202Z,21.13
2023-05-01T15:50:01.938Z,21.14
2023-05-01T15:52:23.728Z,20.86
2023-05-01T15:54:48.014Z,20.95
2023-05-01T15:57:10.625Z,21.04
2023-05-01T15:59:32.200Z,21.03
2023-05-01T16:01:55.025Z,21.05
2023-05-01T16:04:16.593Z,21.16
2023-05-01T16:06:38.300Z,21.22
2023-05-01T16:08:59.913Z,21.29
2023-05-01T16:11:21.446Z,21.55
2023-05-01T16:13:47.668Z,21.78
2023-05-01T16:16:14.672Z,21.88
2023-05-01T16:18:36.236Z,21.82
2023-05-01T16:20:58.131Z,22.60
2023-05-01T16:23:19.597Z,23.02
2023-05-01T16:25:43.918Z,23.04
2023-05-01T16:28:06.300Z,23.69
2023-05-01T16:30:28.259Z,24.08
2023-05-01T16:32:49.794Z,24.38
2023-05-01T16:35:17.630Z,24.81
2023-05-01T16:37:39.632Z,25.11
2023-05-01T16:40:01.882Z,25.41
2023-05-01T16:42:23.860Z,25.92
2023-05-01T16:44:45.416Z,26.41
2023-05-01T16:47:06.920Z,26.25
2023-05-01T16:49:28.517Z,26.20
2023-05-01T16:51:50.677Z,25.91
2023-05-01T16:54:12.122Z,26.26
2023-05-01T16:56:33.740Z,26.12
2023-05-01T16:58:55.544Z,25.83
2023-05-01T17:01:17.233Z,25.71
2023-05-01T17:03:38.766Z,25.31
2023-05-01T17:06:00.696Z,25.27
2023-05-01T17:08:22.169Z,25.22
2023-05-01T17:10:45.064Z,25.44
2023-05-01T17:13:07.786Z,25.38
2023-05-01T17:15:29.372Z,25.39
2023-05-01T17:17:50.976Z,25.26
2023-05-01T17:20:13.797Z,24.97
2023-05-01T17:22:35.296Z,24.40
2023-05-01T17:24:57.556Z,24.23
2023-05-01T17:27:18.966Z,23.66
2023-05-01T17:29:41.561Z,23.51
2023-05-01T17:32:04.500Z,23.19
2023-05-01T17:34:26.108Z,22.74
2023-05-01T17:36:47.621Z,22.51
2023-05-01T17:39:09.155Z,22.29
2023-05-01T17:41:30.793Z,21.97
2023-05-01T17:43:52.367Z,21.49
2023-05-01T17:46:14.193Z,21.55
2023-05-01T17:48:35.810Z,21.20
2023-05-01T17:50:57.696Z,21.10
2023-05-01T17:53:19.283Z,21.02
2023-05-01T17:55:40.797Z,20.93
2023-05-01T17:58:02.276Z,20.80
2023-05-01T18:00:24.149Z,20.58
2023-05-01T18:02:46.630Z,20.41
2023-05-01T18:05:08.358Z,20.27
2023-05-01T18:07:32.737Z,20.10
2023-05-01T18:09:54.268Z,19.94
2023-05-01T18:12:15.850Z,19.79
2023-05-01T18:14:37.482Z,19.67
2023-05-01T18:16:59.881Z,19.58
2023-05-01T18:19:21.443Z,19.40
2023-05-01T18:21:42.875Z,19.20
2023-05-01T18:24:04.685Z,19.07
2023-05-01T18:26:27.604Z,18.87
2023-05-01T18:28:49.050Z,18.59
2023-05-01T18:31:10.719Z,18.45
2023-05-01T18:33:32.413Z,18.31
2023-05-01T18:35:53.882Z,18.08
2023-05-01T18:38:15.326Z,17.93
2023-05-01T18:40:37.627Z,17.84
2023-05-01T18:42:59.236Z,17.70
2023-05-01T18:45:20.664Z,17.68
2023-05-01T18:47:42.247Z,17.63
2023-05-01T18:50:05.044Z,17.53
2023-05-01T18:52:26.645Z,17.49
2023-05-01T18:54:48.055Z,17.42
2023-05-01T18:57:09.581Z,17.28
2023-05-01T18:59:32.089Z,17.17
2023-05-01T19:01:54.017Z,17.04
2023-05-01T19:04:15.617Z,17.01
2023-05-01T19:06:37.327Z,16.89
2023-05-01T19:08:59.534Z,16.71
2023-05-01T19:11:21.649Z,16.70
2023-05-01T19:13:43.123Z,16.48
2023-05-01T19:16:04.882Z,16.51
2023-05-01T19:18:26.438Z,16.41
2023-05-01T19:20:47.894Z,16.41
2023-05-01T19:23:09.353Z,16.27
2023-05-01T19:25:32.405Z,16.18
2023-05-01T19:27:53.969Z,16.09
2023-05-01T19:30:16.455Z,16.19
2023-05-01T19:32:38.395Z,16.04
2023-05-01T19:34:59.944Z,15.96
2023-05-01T19:37:21.434Z,15.88
2023-05-01T19:39:42.873Z,15.83
2023-05-01T19:42:04.358Z,15.80
2023-05-01T19:44:25.934Z,15.72
2023-05-01T19:46:47.420Z,15.43
2023-05-01T19:49:08.931Z,15.33
2023-05-01T19:51:31.609Z,15.26
2023-05-01T19:53:53.141Z,15.22
2023-05-01T19:56:14.628Z,15.19
2023-05-01T19:58:36.810Z,15.19
2023-05-01T20:01:02.181Z,15.14
2023-05-01T20:03:24.027Z,14.85
2023-05-01T20:05:45.783Z,14.86
2023-05-01T20:08:07.436Z,14.89
2023-05-01T20:10:28.966Z,14.57
2023-05-01T20:12:50.476Z,14.62
2023-05-01T20:15:12.064Z,14.62
2023-05-01T20:17:34.365Z,14.64
2023-05-01T20:19:56.204Z,14.33
2023-05-01T20:22:17.952Z,14.24
2023-05-01T20:24:39.445Z,14.16
2023-05-01T20:27:00.911Z,14.11
2023-05-01T20:29:22.415Z,14.01
2023-05-01T20:31:43.890Z,14.00
2023-05-01T20:34:05.767Z,13.98
2023-05-01T20:36:27.527Z,13.88
2023-05-01T20:38:52.960Z,13.78
2023-05-01T20:41:14.893Z,13.73
2023-05-01T20:43:36.630Z,13.66
2023-05-01T20:45:58.131Z,13.70
2023-05-01T20:48:19.664Z,13.68
2023-05-01T20:50:43.640Z,13.62
2023-05-01T20:53:05.157Z,13.61
2023-05-01T20:55:28.054Z,13.58
2023-05-01T20:57:49.572Z,13.58
2023-05-01T21:00:11.492Z,13.57
2023-05-01T21:02:33.285Z,13.49
2023-05-01T21:04:55.011Z,13.45
2023-05-01T21:07:16.526Z,13.46
2023-05-01T21:09:43.757Z,13.40
2023-05-01T21:12:06.484Z,13.41
2023-05-01T21:14:28.025Z,13.37
2023-05-01T21:16:49.527Z,13.14
2023-05-01T21:19:12.854Z,12.98
2023-05-01T21:21:36.290Z,13.01
2023-05-01T21:23:57.736Z,13.01
2023-05-01T21:26:19.766Z,12.88
2023-05-01T21:28:41.412Z,12.76
2023-05-01T21:31:03.260Z,12.66
2023-05-01T21:33:25.139Z,12.72
2023-05-01T21:35:46.754Z,12.75
2023-05-01T21:38:08.529Z,12.75
2023-05-01T21:40:29.941Z,12.72
2023-05-01T21:42:53.324Z,12.70
2023-05-01T21:45:17.479Z,12.76
2023-05-01T21:47:42.296Z,12.71
2023-05-01T21:50:04.784Z,12.77
2023-05-01T21:52:29.372Z,12.64
2023-05-01T21:54:50.858Z,12.61
2023-05-01T21:57:12.468Z,12.60
2023-05-01T21:59:38.377Z,12.46
2023-05-01T22:01:59.835Z,12.35
2023-05-01T22:04:21.547Z,12.17
2023-05-01T22:06:43.076Z,12.31
2023-05-01T22:09:04.707Z,12.36
2023-05-01T22:11:26.285Z,12.35
2023-05-01T22:13:47.870Z,12.18
2023-05-01T22:16:09.330Z,12.12
2023-05-01T22:18:30.840Z,12.25
2023-05-01T22:20:52.584Z,12.05
2023-05-01T22:23:14.421Z,11.95
2023-05-01T22:25:35.841Z,11.95
2023-05-01T22:27:57.854Z,12.02
2023-05-01T22:30:19.337Z,12.05
2023-05-01T22:32:40.864Z,12.15
2023-05-01T22:35:02.457Z,12.27
2023-05-01T22:37:25.639Z,12.02
2023-05-01T22:39:47.251Z,12.13
2023-05-01T22:42:08.879Z,12.12
2023-05-01T22:44:30.791Z,12.11
2023-05-01T22:46:52.252Z,12.15
2023-05-01T22:49:13.733Z,12.18
2023-05-01T22:51:35.442Z,12.15
2023-05-01T22:53:56.922Z,12.17
2023-05-01T22:56:18.502Z,12.11
2023-05-01T22:58:39.981Z,12.15
2023-05-01T23:01:01.501Z,12.00
2023-05-01T23:03:23.100Z,12.01
2023-05-01T23:05:44.635Z,11.96
2023-05-01T23:08:06.326Z,11.99
2023-05-01T23:10:28.597Z,11.90
2023-05-01T23:12:50.107Z,11.90
2023-05-01T23:15:17.015Z,11.78
2023-05-01T23:17:39.722Z,11.84
2023-05-01T23:20:02.101Z,11.72
2023-05-01T23:22:23.986Z,11.77
2023-05-01T23:24:49.871Z,11.86
2023-05-01T23:27:12.354Z,11.86
2023-05-01T23:29:34.167Z,11.66
2023-05-01T23:31:56.981Z,11.55
2023-05-01T23:34:18.678Z,11.67
2023-05-01T23:36:43.680Z,11.69
2023-05-01T23:39:05.105Z,11.72
2023-05-01T23:41:26.739Z,11.57
2023-05-01T23:43:48.232Z,11.48
2023-05-01T23:46:09.700Z,11.61
2023-05-01T23:48:33.400Z,11.59
2023-05-01T23:50:55.394Z,11.61
2023-05-01T23:53:16.842Z,11.71
2023-05-01T23:55:38.348Z,11.69
2023-05-01T23:57:59.836Z,11.74
